sensor_id;sensor_type;location;lat;lon;timestamp;P1;durP1;ratioP1;P2;durP2;ratioP2
60372;SDS011;46216;52.220;5.134;2023-07-31T00:00:11;6.38;;;2.40;;
60372;SDS011;46216;52.220;5.134;2023-07-31T00:02:37;10.40;;;2.83;;
60372;SDS011;46216;52.220;5.134;2023-07-31T00:05:03;7.38;;;2.42;;
60372;SDS011;46216;52.220;5.134;2023-07-31T00:07:29;9.65;;;2.70;;
60372;SDS011;46216;52.220;5.134;2023-07-31T00:09:54;10.98;;;2.95;;
60372;SDS011;46216;52.220;5.134;2023-07-31T00:12:21;5.10;;;2.50;;
60372;SDS011;46216;52.220;5.134;2023-07-31T00:14:47;9.00;;;2.80;;
60372;SDS011;46216;52.220;5.134;2023-07-31T00:17:12;9.32;;;3.30;;
60372;SDS011;46216;52.220;5.134;2023-07-31T00:19:38;14.77;;;3.42;;
60372;SDS011;46216;52.220;5.134;2023-07-31T00:22:03;8.52;;;3.10;;
60372;SDS011;46216;52.220;5.134;2023-07-31T00:24:29;7.22;;;3.00;;
60372;SDS011;46216;52.220;5.134;2023-07-31T00:26:54;9.43;;;3.05;;
60372;SDS011;46216;52.220;5.134;2023-07-31T00:29:19;10.82;;;3.67;;
60372;SDS011;46216;52.220;5.134;2023-07-31T00:31:45;12.27;;;3.63;;
60372;SDS011;46216;52.220;5.134;2023-07-31T00:34:10;11.00;;;4.53;;
60372;SDS011;46216;52.220;5.134;2023-07-31T00:36:36;25.30;;;7.25;;
60372;SDS011;46216;52.220;5.134;2023-07-31T00:39:01;32.17;;;6.95;;
60372;SDS011;46216;52.220;5.134;2023-07-31T00:41:27;29.27;;;7.30;;
60372;SDS011;46216;52.220;5.134;2023-07-31T00:43:52;27.27;;;6.93;;
60372;SDS011;46216;52.220;5.134;2023-07-31T00:46:18;26.95;;;6.85;;
60372;SDS011;46216;52.220;5.134;2023-07-31T00:48:46;24.67;;;6.15;;
60372;SDS011;46216;52.220;5.134;2023-07-31T00:51:12;19.33;;;5.63;;
60372;SDS011;46216;52.220;5.134;2023-07-31T00:53:38;18.23;;;5.68;;
60372;SDS011;46216;52.220;5.134;2023-07-31T00:56:06;21.60;;;5.60;;
60372;SDS011;46216;52.220;5.134;2023-07-31T00:58:32;18.15;;;4.78;;
60372;SDS011;46216;52.220;5.134;2023-07-31T01:00:58;14.20;;;4.20;;
60372;SDS011;46216;52.220;5.134;2023-07-31T01:03:23;9.57;;;3.30;;
60372;SDS011;46216;52.220;5.134;2023-07-31T01:05:56;11.40;;;3.50;;
60372;SDS011;46216;52.220;5.134;2023-07-31T01:08:28;9.88;;;3.38;;
60372;SDS011;46216;52.220;5.134;2023-07-31T01:10:56;12.75;;;3.70;;
60372;SDS011;46216;52.220;5.134;2023-07-31T01:13:27;10.73;;;3.33;;
60372;SDS011;46216;52.220;5.134;2023-07-31T01:15:53;8.38;;;3.15;;
60372;SDS011;46216;52.220;5.134;2023-07-31T01:18:19;10.13;;;3.50;;
60372;SDS011;46216;52.220;5.134;2023-07-31T01:20:44;8.10;;;3.00;;
60372;SDS011;46216;52.220;5.134;2023-07-31T01:26:23;7.93;;;3.20;;
60372;SDS011;46216;52.220;5.134;2023-07-31T01:31:55;9.82;;;3.60;;
60372;SDS011;46216;52.220;5.134;2023-07-31T01:34:23;10.25;;;3.30;;
60372;SDS011;46216;52.220;5.134;2023-07-31T01:36:51;9.88;;;3.55;;
60372;SDS011;46216;52.220;5.134;2023-07-31T01:39:16;7.90;;;3.13;;
60372;SDS011;46216;52.220;5.134;2023-07-31T01:41:42;9.82;;;3.67;;
60372;SDS011;46216;52.220;5.134;2023-07-31T01:44:07;14.10;;;4.30;;
60372;SDS011;46216;52.220;5.134;2023-07-31T01:46:32;13.70;;;4.18;;
60372;SDS011;46216;52.220;5.134;2023-07-31T01:48:58;15.32;;;5.13;;
60372;SDS011;46216;52.220;5.134;2023-07-31T01:51:23;22.90;;;6.35;;
60372;SDS011;46216;52.220;5.134;2023-07-31T01:53:49;24.60;;;6.65;;
60372;SDS011;46216;52.220;5.134;2023-07-31T01:56:14;26.52;;;6.90;;
60372;SDS011;46216;52.220;5.134;2023-07-31T01:58:40;25.60;;;6.72;;
60372;SDS011;46216;52.220;5.134;2023-07-31T02:01:05;26.40;;;6.95;;
60372;SDS011;46216;52.220;5.134;2023-07-31T02:03:31;25.15;;;7.03;;
60372;SDS011;46216;52.220;5.134;2023-07-31T02:05:56;31.98;;;7.45;;
60372;SDS011;46216;52.220;5.134;2023-07-31T02:08:22;26.75;;;7.00;;
60372;SDS011;46216;52.220;5.134;2023-07-31T02:10:47;31.10;;;7.85;;
60372;SDS011;46216;52.220;5.134;2023-07-31T02:13:12;28.42;;;7.63;;
60372;SDS011;46216;52.220;5.134;2023-07-31T02:15:38;28.60;;;7.70;;
60372;SDS011;46216;52.220;5.134;2023-07-31T02:18:03;27.17;;;7.05;;
60372;SDS011;46216;52.220;5.134;2023-07-31T02:20:29;23.88;;;7.10;;
60372;SDS011;46216;52.220;5.134;2023-07-31T02:22:54;24.70;;;6.75;;
60372;SDS011;46216;52.220;5.134;2023-07-31T02:25:20;25.63;;;6.95;;
60372;SDS011;46216;52.220;5.134;2023-07-31T02:27:45;34.42;;;7.55;;
60372;SDS011;46216;52.220;5.134;2023-07-31T02:30:11;24.27;;;7.22;;
60372;SDS011;46216;52.220;5.134;2023-07-31T02:32:36;23.42;;;7.13;;
60372;SDS011;46216;52.220;5.134;2023-07-31T02:35:05;28.25;;;7.00;;
60372;SDS011;46216;52.220;5.134;2023-07-31T02:37:30;28.20;;;7.97;;
60372;SDS011;46216;52.220;5.134;2023-07-31T02:39:56;26.17;;;6.88;;
60372;SDS011;46216;52.220;5.134;2023-07-31T02:42:21;24.55;;;7.15;;
60372;SDS011;46216;52.220;5.134;2023-07-31T02:44:49;33.35;;;7.88;;
60372;SDS011;46216;52.220;5.134;2023-07-31T02:47:20;33.08;;;7.15;;
60372;SDS011;46216;52.220;5.134;2023-07-31T02:49:46;27.15;;;7.03;;
60372;SDS011;46216;52.220;5.134;2023-07-31T02:52:11;32.25;;;7.30;;
60372;SDS011;46216;52.220;5.134;2023-07-31T02:54:37;29.90;;;8.13;;
60372;SDS011;46216;52.220;5.134;2023-07-31T02:57:02;29.58;;;7.35;;
60372;SDS011;46216;52.220;5.134;2023-07-31T02:59:28;29.05;;;6.85;;
60372;SDS011;46216;52.220;5.134;2023-07-31T03:01:53;29.65;;;7.13;;
60372;SDS011;46216;52.220;5.134;2023-07-31T03:04:19;30.55;;;7.60;;
60372;SDS011;46216;52.220;5.134;2023-07-31T03:06:44;31.13;;;7.93;;
60372;SDS011;46216;52.220;5.134;2023-07-31T03:09:09;35.35;;;8.57;;
60372;SDS011;46216;52.220;5.134;2023-07-31T03:11:35;37.28;;;8.63;;
60372;SDS011;46216;52.220;5.134;2023-07-31T03:14:00;28.40;;;8.18;;
60372;SDS011;46216;52.220;5.134;2023-07-31T03:16:25;34.67;;;7.80;;
60372;SDS011;46216;52.220;5.134;2023-07-31T03:18:51;25.83;;;7.70;;
60372;SDS011;46216;52.220;5.134;2023-07-31T03:21:16;25.10;;;7.72;;
60372;SDS011;46216;52.220;5.134;2023-07-31T03:23:42;29.70;;;7.57;;
60372;SDS011;46216;52.220;5.134;2023-07-31T03:26:08;30.50;;;7.35;;
60372;SDS011;46216;52.220;5.134;2023-07-31T03:28:34;30.75;;;8.07;;
60372;SDS011;46216;52.220;5.134;2023-07-31T03:30:59;28.10;;;8.20;;
60372;SDS011;46216;52.220;5.134;2023-07-31T03:33:25;28.73;;;7.50;;
60372;SDS011;46216;52.220;5.134;2023-07-31T03:35:50;24.85;;;7.40;;
60372;SDS011;46216;52.220;5.134;2023-07-31T03:38:16;25.08;;;7.32;;
60372;SDS011;46216;52.220;5.134;2023-07-31T03:40:41;28.77;;;7.88;;
60372;SDS011;46216;52.220;5.134;2023-07-31T03:43:07;24.38;;;7.53;;
60372;SDS011;46216;52.220;5.134;2023-07-31T03:45:33;23.33;;;7.20;;
60372;SDS011;46216;52.220;5.134;2023-07-31T03:47:58;18.92;;;6.65;;
60372;SDS011;46216;52.220;5.134;2023-07-31T03:50:24;20.58;;;6.40;;
60372;SDS011;46216;52.220;5.134;2023-07-31T03:52:50;25.50;;;7.47;;
60372;SDS011;46216;52.220;5.134;2023-07-31T03:55:15;25.55;;;6.80;;
60372;SDS011;46216;52.220;5.134;2023-07-31T03:57:41;19.65;;;6.20;;
60372;SDS011;46216;52.220;5.134;2023-07-31T04:00:06;22.00;;;6.90;;
60372;SDS011;46216;52.220;5.134;2023-07-31T04:02:32;24.00;;;6.43;;
60372;SDS011;46216;52.220;5.134;2023-07-31T04:04:58;21.92;;;6.43;;
60372;SDS011;46216;52.220;5.134;2023-07-31T04:07:23;26.23;;;7.00;;
60372;SDS011;46216;52.220;5.134;2023-07-31T04:09:48;22.55;;;7.20;;
60372;SDS011;46216;52.220;5.134;2023-07-31T04:12:14;22.50;;;7.20;;
60372;SDS011;46216;52.220;5.134;2023-07-31T04:14:39;23.33;;;6.32;;
60372;SDS011;46216;52.220;5.134;2023-07-31T04:17:05;20.15;;;6.57;;
60372;SDS011;46216;52.220;5.134;2023-07-31T04:19:30;24.52;;;6.72;;
60372;SDS011;46216;52.220;5.134;2023-07-31T04:21:56;22.75;;;6.90;;
60372;SDS011;46216;52.220;5.134;2023-07-31T04:24:21;21.42;;;6.88;;
60372;SDS011;46216;52.220;5.134;2023-07-31T04:26:52;20.60;;;7.40;;
60372;SDS011;46216;52.220;5.134;2023-07-31T04:29:19;25.58;;;6.95;;
60372;SDS011;46216;52.220;5.134;2023-07-31T04:31:44;26.73;;;7.40;;
60372;SDS011;46216;52.220;5.134;2023-07-31T04:34:10;26.00;;;6.63;;
60372;SDS011;46216;52.220;5.134;2023-07-31T04:36:36;27.17;;;7.50;;
60372;SDS011;46216;52.220;5.134;2023-07-31T04:39:01;25.45;;;7.28;;
60372;SDS011;46216;52.220;5.134;2023-07-31T04:41:27;19.73;;;7.72;;
60372;SDS011;46216;52.220;5.134;2023-07-31T04:43:53;19.75;;;6.75;;
60372;SDS011;46216;52.220;5.134;2023-07-31T04:46:18;17.60;;;6.45;;
60372;SDS011;46216;52.220;5.134;2023-07-31T04:48:43;22.58;;;7.07;;
60372;SDS011;46216;52.220;5.134;2023-07-31T04:51:09;19.67;;;7.30;;
60372;SDS011;46216;52.220;5.134;2023-07-31T04:53:35;21.70;;;7.35;;
60372;SDS011;46216;52.220;5.134;2023-07-31T04:56:00;20.85;;;7.03;;
60372;SDS011;46216;52.220;5.134;2023-07-31T04:58:26;17.00;;;6.47;;
60372;SDS011;46216;52.220;5.134;2023-07-31T05:00:51;19.88;;;6.50;;
60372;SDS011;46216;52.220;5.134;2023-07-31T05:03:17;20.77;;;6.68;;
60372;SDS011;46216;52.220;5.134;2023-07-31T05:05:42;16.75;;;6.00;;
60372;SDS011;46216;52.220;5.134;2023-07-31T05:08:08;19.77;;;6.35;;
60372;SDS011;46216;52.220;5.134;2023-07-31T05:10:33;16.25;;;5.93;;
60372;SDS011;46216;52.220;5.134;2023-07-31T05:13:02;13.55;;;5.35;;
60372;SDS011;46216;52.220;5.134;2023-07-31T05:15:28;16.33;;;6.07;;
60372;SDS011;46216;52.220;5.134;2023-07-31T05:17:53;15.50;;;6.00;;
60372;SDS011;46216;52.220;5.134;2023-07-31T05:20:20;13.30;;;5.63;;
60372;SDS011;46216;52.220;5.134;2023-07-31T05:23:00;13.90;;;5.20;;
60372;SDS011;46216;52.220;5.134;2023-07-31T05:25:25;10.45;;;5.55;;
60372;SDS011;46216;52.220;5.134;2023-07-31T05:27:50;11.50;;;5.13;;
60372;SDS011;46216;52.220;5.134;2023-07-31T05:30:16;8.90;;;4.47;;
60372;SDS011;46216;52.220;5.134;2023-07-31T05:32:41;17.13;;;5.10;;
60372;SDS011;46216;52.220;5.134;2023-07-31T05:35:07;9.80;;;4.55;;
60372;SDS011;46216;52.220;5.134;2023-07-31T05:37:32;10.02;;;4.32;;
60372;SDS011;46216;52.220;5.134;2023-07-31T05:39:58;11.13;;;4.60;;
60372;SDS011;46216;52.220;5.134;2023-07-31T05:42:23;9.07;;;3.95;;
60372;SDS011;46216;52.220;5.134;2023-07-31T05:44:49;8.90;;;4.32;;
60372;SDS011;46216;52.220;5.134;2023-07-31T05:47:14;9.45;;;4.03;;
60372;SDS011;46216;52.220;5.134;2023-07-31T05:49:40;10.43;;;4.60;;
60372;SDS011;46216;52.220;5.134;2023-07-31T05:52:05;11.25;;;4.22;;
60372;SDS011;46216;52.220;5.134;2023-07-31T05:54:31;10.30;;;4.30;;
60372;SDS011;46216;52.220;5.134;2023-07-31T05:57:01;11.98;;;4.63;;
60372;SDS011;46216;52.220;5.134;2023-07-31T05:59:26;10.52;;;4.70;;
60372;SDS011;46216;52.220;5.134;2023-07-31T06:01:52;10.95;;;4.50;;
60372;SDS011;46216;52.220;5.134;2023-07-31T06:04:17;9.90;;;3.95;;
60372;SDS011;46216;52.220;5.134;2023-07-31T06:06:43;10.50;;;4.60;;
60372;SDS011;46216;52.220;5.134;2023-07-31T06:09:08;10.20;;;4.28;;
60372;SDS011;46216;52.220;5.134;2023-07-31T06:11:34;10.80;;;4.13;;
60372;SDS011;46216;52.220;5.134;2023-07-31T06:13:59;9.68;;;4.10;;
60372;SDS011;46216;52.220;5.134;2023-07-31T06:16:24;10.35;;;3.75;;
60372;SDS011;46216;52.220;5.134;2023-07-31T06:18:50;7.60;;;3.50;;
60372;SDS011;46216;52.220;5.134;2023-07-31T06:21:16;9.93;;;4.05;;
60372;SDS011;46216;52.220;5.134;2023-07-31T06:23:42;11.02;;;3.90;;
60372;SDS011;46216;52.220;5.134;2023-07-31T06:26:07;9.88;;;3.80;;
60372;SDS011;46216;52.220;5.134;2023-07-31T06:28:33;9.65;;;3.67;;
60372;SDS011;46216;52.220;5.134;2023-07-31T06:30:58;6.75;;;3.08;;
60372;SDS011;46216;52.220;5.134;2023-07-31T06:33:24;12.35;;;3.75;;
60372;SDS011;46216;52.220;5.134;2023-07-31T06:35:50;7.22;;;3.78;;
60372;SDS011;46216;52.220;5.134;2023-07-31T06:38:15;9.52;;;3.97;;
60372;SDS011;46216;52.220;5.134;2023-07-31T06:40:41;7.75;;;3.58;;
60372;SDS011;46216;52.220;5.134;2023-07-31T06:43:06;9.75;;;3.53;;
60372;SDS011;46216;52.220;5.134;2023-07-31T06:45:38;7.07;;;3.05;;
60372;SDS011;46216;52.220;5.134;2023-07-31T06:48:03;9.40;;;3.53;;
60372;SDS011;46216;52.220;5.134;2023-07-31T06:50:32;5.25;;;2.80;;
60372;SDS011;46216;52.220;5.134;2023-07-31T06:52:58;6.72;;;3.13;;
60372;SDS011;46216;52.220;5.134;2023-07-31T06:55:23;4.57;;;3.00;;
60372;SDS011;46216;52.220;5.134;2023-07-31T06:57:50;6.72;;;3.00;;
60372;SDS011;46216;52.220;5.134;2023-07-31T07:00:17;6.15;;;2.60;;
60372;SDS011;46216;52.220;5.134;2023-07-31T07:02:43;9.18;;;2.80;;
60372;SDS011;46216;52.220;5.134;2023-07-31T07:05:08;5.05;;;2.90;;
60372;SDS011;46216;52.220;5.134;2023-07-31T07:07:37;6.75;;;2.92;;
60372;SDS011;46216;52.220;5.134;2023-07-31T07:10:02;9.45;;;3.25;;
60372;SDS011;46216;52.220;5.134;2023-07-31T07:12:29;6.18;;;2.80;;
60372;SDS011;46216;52.220;5.134;2023-07-31T07:14:55;5.88;;;2.97;;
60372;SDS011;46216;52.220;5.134;2023-07-31T07:17:20;7.90;;;3.50;;
60372;SDS011;46216;52.220;5.134;2023-07-31T07:19:47;5.03;;;3.10;;
60372;SDS011;46216;52.220;5.134;2023-07-31T07:22:12;5.93;;;2.90;;
60372;SDS011;46216;52.220;5.134;2023-07-31T07:24:38;5.63;;;2.80;;
60372;SDS011;46216;52.220;5.134;2023-07-31T07:27:03;4.05;;;2.60;;
60372;SDS011;46216;52.220;5.134;2023-07-31T07:29:29;3.50;;;2.40;;
60372;SDS011;46216;52.220;5.134;2023-07-31T07:31:55;3.85;;;2.20;;
60372;SDS011;46216;52.220;5.134;2023-07-31T07:34:26;3.75;;;2.35;;
60372;SDS011;46216;52.220;5.134;2023-07-31T07:36:53;4.93;;;2.35;;
60372;SDS011;46216;52.220;5.134;2023-07-31T07:39:19;3.30;;;1.83;;
60372;SDS011;46216;52.220;5.134;2023-07-31T07:41:45;5.43;;;2.40;;
60372;SDS011;46216;52.220;5.134;2023-07-31T07:44:11;6.47;;;2.60;;
60372;SDS011;46216;52.220;5.134;2023-07-31T07:46:37;5.53;;;2.00;;
60372;SDS011;46216;52.220;5.134;2023-07-31T07:49:02;5.38;;;2.45;;
60372;SDS011;46216;52.220;5.134;2023-07-31T07:51:27;3.72;;;1.95;;
60372;SDS011;46216;52.220;5.134;2023-07-31T07:53:55;2.75;;;1.70;;
60372;SDS011;46216;52.220;5.134;2023-07-31T07:56:21;2.58;;;1.60;;
60372;SDS011;46216;52.220;5.134;2023-07-31T07:58:48;3.65;;;2.00;;
60372;SDS011;46216;52.220;5.134;2023-07-31T08:01:14;2.90;;;1.92;;
60372;SDS011;46216;52.220;5.134;2023-07-31T08:03:40;2.65;;;1.80;;
60372;SDS011;46216;52.220;5.134;2023-07-31T08:06:05;2.30;;;1.65;;
60372;SDS011;46216;52.220;5.134;2023-07-31T08:08:30;1.73;;;1.63;;
60372;SDS011;46216;52.220;5.134;2023-07-31T08:10:56;2.22;;;1.65;;
60372;SDS011;46216;52.220;5.134;2023-07-31T08:13:21;3.47;;;1.50;;
60372;SDS011;46216;52.220;5.134;2023-07-31T08:15:46;2.03;;;1.65;;
60372;SDS011;46216;52.220;5.134;2023-07-31T08:18:12;1.73;;;1.58;;
60372;SDS011;46216;52.220;5.134;2023-07-31T08:20:37;5.22;;;1.80;;
60372;SDS011;46216;52.220;5.134;2023-07-31T08:23:03;4.30;;;1.80;;
60372;SDS011;46216;52.220;5.134;2023-07-31T08:25:29;3.47;;;1.70;;
60372;SDS011;46216;52.220;5.134;2023-07-31T08:27:54;1.95;;;1.60;;
60372;SDS011;46216;52.220;5.134;2023-07-31T08:30:20;2.38;;;1.70;;
60372;SDS011;46216;52.220;5.134;2023-07-31T08:32:46;3.50;;;1.77;;
60372;SDS011;46216;52.220;5.134;2023-07-31T08:35:12;2.13;;;1.90;;
60372;SDS011;46216;52.220;5.134;2023-07-31T08:37:37;3.90;;;1.70;;
60372;SDS011;46216;52.220;5.134;2023-07-31T08:40:03;4.10;;;2.20;;
60372;SDS011;46216;52.220;5.134;2023-07-31T08:42:29;2.65;;;1.60;;
60372;SDS011;46216;52.220;5.134;2023-07-31T08:44:55;2.58;;;1.73;;
60372;SDS011;46216;52.220;5.134;2023-07-31T08:47:21;2.90;;;1.75;;
60372;SDS011;46216;52.220;5.134;2023-07-31T08:49:47;3.17;;;1.80;;
60372;SDS011;46216;52.220;5.134;2023-07-31T08:52:14;2.58;;;1.67;;
60372;SDS011;46216;52.220;5.134;2023-07-31T08:54:39;2.08;;;1.55;;
60372;SDS011;46216;52.220;5.134;2023-07-31T08:57:06;2.05;;;1.60;;
60372;SDS011;46216;52.220;5.134;2023-07-31T08:59:32;2.00;;;1.60;;
60372;SDS011;46216;52.220;5.134;2023-07-31T09:02:02;1.70;;;1.58;;
60372;SDS011;46216;52.220;5.134;2023-07-31T09:04:31;1.45;;;1.33;;
60372;SDS011;46216;52.220;5.134;2023-07-31T09:07:02;2.80;;;1.35;;
60372;SDS011;46216;52.220;5.134;2023-07-31T09:09:29;1.30;;;1.20;;
60372;SDS011;46216;52.220;5.134;2023-07-31T09:11:57;2.95;;;1.45;;
60372;SDS011;46216;52.220;5.134;2023-07-31T09:14:23;1.75;;;1.50;;
60372;SDS011;46216;52.220;5.134;2023-07-31T09:19:35;2.08;;;1.63;;
60372;SDS011;46216;52.220;5.134;2023-07-31T09:22:04;2.17;;;1.60;;
60372;SDS011;46216;52.220;5.134;2023-07-31T09:24:31;1.90;;;1.70;;
60372;SDS011;46216;52.220;5.134;2023-07-31T09:26:59;1.55;;;1.40;;
60372;SDS011;46216;52.220;5.134;2023-07-31T09:29:25;1.70;;;1.50;;
60372;SDS011;46216;52.220;5.134;2023-07-31T09:31:52;1.55;;;1.45;;
60372;SDS011;46216;52.220;5.134;2023-07-31T09:34:19;1.40;;;1.30;;
60372;SDS011;46216;52.220;5.134;2023-07-31T09:36:46;2.20;;;1.75;;
60372;SDS011;46216;52.220;5.134;2023-07-31T09:39:13;3.80;;;1.80;;
60372;SDS011;46216;52.220;5.134;2023-07-31T09:41:41;2.97;;;1.90;;
60372;SDS011;46216;52.220;5.134;2023-07-31T09:44:08;2.00;;;1.50;;
60372;SDS011;46216;52.220;5.134;2023-07-31T09:46:37;1.70;;;1.42;;
60372;SDS011;46216;52.220;5.134;2023-07-31T09:49:06;3.03;;;1.60;;
60372;SDS011;46216;52.220;5.134;2023-07-31T09:51:34;3.15;;;1.42;;
60372;SDS011;46216;52.220;5.134;2023-07-31T09:54:03;2.42;;;1.70;;
60372;SDS011;46216;52.220;5.134;2023-07-31T09:56:34;2.30;;;1.88;;
60372;SDS011;46216;52.220;5.134;2023-07-31T09:59:01;3.45;;;2.20;;
60372;SDS011;46216;52.220;5.134;2023-07-31T10:01:29;2.15;;;1.95;;
60372;SDS011;46216;52.220;5.134;2023-07-31T10:03:54;3.50;;;2.10;;
60372;SDS011;46216;52.220;5.134;2023-07-31T10:06:22;4.63;;;2.05;;
60372;SDS011;46216;52.220;5.134;2023-07-31T10:08:49;3.97;;;2.47;;
60372;SDS011;46216;52.220;5.134;2023-07-31T10:11:18;3.85;;;2.40;;
60372;SDS011;46216;52.220;5.134;2023-07-31T10:13:44;2.92;;;2.50;;
60372;SDS011;46216;52.220;5.134;2023-07-31T10:16:10;6.38;;;3.20;;
60372;SDS011;46216;52.220;5.134;2023-07-31T10:18:37;6.55;;;2.95;;
60372;SDS011;46216;52.220;5.134;2023-07-31T10:21:04;4.75;;;3.05;;
60372;SDS011;46216;52.220;5.134;2023-07-31T10:23:31;4.25;;;2.88;;
60372;SDS011;46216;52.220;5.134;2023-07-31T10:25:57;5.15;;;3.30;;
60372;SDS011;46216;52.220;5.134;2023-07-31T10:28:24;4.28;;;3.13;;
60372;SDS011;46216;52.220;5.134;2023-07-31T10:30:50;7.57;;;3.78;;
60372;SDS011;46216;52.220;5.134;2023-07-31T10:33:16;5.70;;;3.53;;
60372;SDS011;46216;52.220;5.134;2023-07-31T10:35:43;6.00;;;3.75;;
60372;SDS011;46216;52.220;5.134;2023-07-31T10:38:09;6.10;;;3.20;;
60372;SDS011;46216;52.220;5.134;2023-07-31T10:40:38;5.38;;;3.33;;
60372;SDS011;46216;52.220;5.134;2023-07-31T10:43:04;5.05;;;2.70;;
60372;SDS011;46216;52.220;5.134;2023-07-31T10:45:37;3.92;;;3.05;;
60372;SDS011;46216;52.220;5.134;2023-07-31T10:48:04;4.15;;;2.92;;
60372;SDS011;46216;52.220;5.134;2023-07-31T10:50:31;6.43;;;2.90;;
60372;SDS011;46216;52.220;5.134;2023-07-31T10:52:58;6.60;;;3.00;;
60372;SDS011;46216;52.220;5.134;2023-07-31T10:55:41;5.32;;;2.88;;
60372;SDS011;46216;52.220;5.134;2023-07-31T10:58:11;3.97;;;2.60;;
60372;SDS011;46216;52.220;5.134;2023-07-31T11:00:38;6.55;;;2.72;;
60372;SDS011;46216;52.220;5.134;2023-07-31T11:03:08;8.68;;;3.40;;
60372;SDS011;46216;52.220;5.134;2023-07-31T11:05:52;6.45;;;3.42;;
60372;SDS011;46216;52.220;5.134;2023-07-31T11:08:29;7.07;;;3.95;;
60372;SDS011;46216;52.220;5.134;2023-07-31T11:13:28;7.65;;;3.40;;
60372;SDS011;46216;52.220;5.134;2023-07-31T11:15:54;9.93;;;4.05;;
60372;SDS011;46216;52.220;5.134;2023-07-31T11:18:20;9.63;;;3.80;;
60372;SDS011;46216;52.220;5.134;2023-07-31T11:20:45;9.23;;;3.65;;
60372;SDS011;46216;52.220;5.134;2023-07-31T11:23:11;8.45;;;4.43;;
60372;SDS011;46216;52.220;5.134;2023-07-31T11:25:40;9.00;;;3.67;;
60372;SDS011;46216;52.220;5.134;2023-07-31T11:28:10;9.57;;;4.32;;
60372;SDS011;46216;52.220;5.134;2023-07-31T11:30:37;9.38;;;4.57;;
60372;SDS011;46216;52.220;5.134;2023-07-31T11:33:03;9.27;;;4.10;;
60372;SDS011;46216;52.220;5.134;2023-07-31T11:35:31;8.73;;;3.35;;
60372;SDS011;46216;52.220;5.134;2023-07-31T11:37:57;10.90;;;3.92;;
60372;SDS011;46216;52.220;5.134;2023-07-31T11:40:23;10.65;;;3.40;;
60372;SDS011;46216;52.220;5.134;2023-07-31T11:42:54;12.38;;;3.47;;
60372;SDS011;46216;52.220;5.134;2023-07-31T11:45:20;14.27;;;3.40;;
60372;SDS011;46216;52.220;5.134;2023-07-31T11:47:45;10.40;;;3.50;;
60372;SDS011;46216;52.220;5.134;2023-07-31T11:50:11;9.75;;;2.78;;
60372;SDS011;46216;52.220;5.134;2023-07-31T11:52:43;7.30;;;2.88;;
60372;SDS011;46216;52.220;5.134;2023-07-31T11:55:10;14.95;;;3.50;;
60372;SDS011;46216;52.220;5.134;2023-07-31T11:57:38;13.98;;;3.47;;
60372;SDS011;46216;52.220;5.134;2023-07-31T12:00:06;9.45;;;3.30;;
60372;SDS011;46216;52.220;5.134;2023-07-31T12:02:33;9.75;;;3.15;;
60372;SDS011;46216;52.220;5.134;2023-07-31T12:04:59;10.85;;;3.13;;
60372;SDS011;46216;52.220;5.134;2023-07-31T12:07:24;9.63;;;3.80;;
60372;SDS011;46216;52.220;5.134;2023-07-31T12:09:51;13.45;;;4.10;;
60372;SDS011;46216;52.220;5.134;2023-07-31T12:12:19;7.57;;;3.88;;
60372;SDS011;46216;52.220;5.134;2023-07-31T12:14:48;11.93;;;3.95;;
60372;SDS011;46216;52.220;5.134;2023-07-31T12:17:16;9.25;;;3.97;;
60372;SDS011;46216;52.220;5.134;2023-07-31T12:19:44;10.98;;;4.40;;
60372;SDS011;46216;52.220;5.134;2023-07-31T12:22:13;10.20;;;4.57;;
60372;SDS011;46216;52.220;5.134;2023-07-31T12:24:40;9.30;;;3.65;;
60372;SDS011;46216;52.220;5.134;2023-07-31T12:27:10;8.00;;;3.42;;
60372;SDS011;46216;52.220;5.134;2023-07-31T12:29:43;12.80;;;3.20;;
60372;SDS011;46216;52.220;5.134;2023-07-31T12:32:19;9.55;;;3.67;;
60372;SDS011;46216;52.220;5.134;2023-07-31T12:34:45;10.60;;;3.95;;
60372;SDS011;46216;52.220;5.134;2023-07-31T12:37:11;10.63;;;4.38;;
60372;SDS011;46216;52.220;5.134;2023-07-31T12:39:39;11.30;;;3.92;;
60372;SDS011;46216;52.220;5.134;2023-07-31T12:42:05;10.48;;;3.72;;
60372;SDS011;46216;52.220;5.134;2023-07-31T12:44:31;9.13;;;3.45;;
60372;SDS011;46216;52.220;5.134;2023-07-31T12:46:56;10.13;;;3.20;;
60372;SDS011;46216;52.220;5.134;2023-07-31T12:49:22;11.27;;;3.35;;
60372;SDS011;46216;52.220;5.134;2023-07-31T12:51:47;8.98;;;3.97;;
60372;SDS011;46216;52.220;5.134;2023-07-31T12:54:12;11.95;;;4.32;;
60372;SDS011;46216;52.220;5.134;2023-07-31T12:56:38;13.02;;;4.30;;
60372;SDS011;46216;52.220;5.134;2023-07-31T12:59:03;11.50;;;4.53;;
60372;SDS011;46216;52.220;5.134;2023-07-31T13:01:28;9.43;;;5.05;;
60372;SDS011;46216;52.220;5.134;2023-07-31T13:03:54;10.25;;;5.95;;
60372;SDS011;46216;52.220;5.134;2023-07-31T13:06:19;12.20;;;5.78;;
60372;SDS011;46216;52.220;5.134;2023-07-31T13:08:45;11.52;;;4.22;;
60372;SDS011;46216;52.220;5.134;2023-07-31T13:11:10;7.53;;;3.33;;
60372;SDS011;46216;52.220;5.134;2023-07-31T13:13:36;7.18;;;3.25;;
60372;SDS011;46216;52.220;5.134;2023-07-31T13:16:01;7.18;;;3.55;;
60372;SDS011;46216;52.220;5.134;2023-07-31T13:18:26;9.38;;;3.53;;
60372;SDS011;46216;52.220;5.134;2023-07-31T13:20:52;7.68;;;3.47;;
60372;SDS011;46216;52.220;5.134;2023-07-31T13:23:17;6.10;;;3.45;;
60372;SDS011;46216;52.220;5.134;2023-07-31T13:25:42;6.90;;;3.63;;
60372;SDS011;46216;52.220;5.134;2023-07-31T13:28:08;10.98;;;3.92;;
60372;SDS011;46216;52.220;5.134;2023-07-31T13:30:33;5.53;;;3.45;;
60372;SDS011;46216;52.220;5.134;2023-07-31T13:32:59;10.15;;;3.83;;
60372;SDS011;46216;52.220;5.134;2023-07-31T13:35:24;9.20;;;3.40;;
60372;SDS011;46216;52.220;5.134;2023-07-31T13:37:50;5.90;;;3.35;;
60372;SDS011;46216;52.220;5.134;2023-07-31T13:40:15;7.10;;;3.40;;
60372;SDS011;46216;52.220;5.134;2023-07-31T13:42:41;5.45;;;3.55;;
60372;SDS011;46216;52.220;5.134;2023-07-31T13:45:06;6.90;;;4.10;;
60372;SDS011;46216;52.220;5.134;2023-07-31T13:47:32;6.10;;;3.45;;
60372;SDS011;46216;52.220;5.134;2023-07-31T13:49:58;5.43;;;3.08;;
60372;SDS011;46216;52.220;5.134;2023-07-31T13:52:23;6.38;;;2.80;;
60372;SDS011;46216;52.220;5.134;2023-07-31T13:54:49;3.25;;;2.65;;
60372;SDS011;46216;52.220;5.134;2023-07-31T13:57:14;8.23;;;3.20;;
60372;SDS011;46216;52.220;5.134;2023-07-31T13:59:39;5.85;;;2.80;;
60372;SDS011;46216;52.220;5.134;2023-07-31T14:02:05;4.28;;;2.90;;
60372;SDS011;46216;52.220;5.134;2023-07-31T14:04:30;7.72;;;3.15;;
60372;SDS011;46216;52.220;5.134;2023-07-31T14:06:56;4.93;;;3.20;;
60372;SDS011;46216;52.220;5.134;2023-07-31T14:09:22;4.78;;;3.53;;
60372;SDS011;46216;52.220;5.134;2023-07-31T14:11:47;5.10;;;3.50;;
60372;SDS011;46216;52.220;5.134;2023-07-31T14:14:12;4.25;;;3.60;;
60372;SDS011;46216;52.220;5.134;2023-07-31T14:16:38;3.95;;;3.55;;
60372;SDS011;46216;52.220;5.134;2023-07-31T14:19:04;3.20;;;2.90;;
60372;SDS011;46216;52.220;5.134;2023-07-31T14:21:29;5.25;;;2.70;;
60372;SDS011;46216;52.220;5.134;2023-07-31T14:23:54;2.38;;;1.90;;
60372;SDS011;46216;52.220;5.134;2023-07-31T14:26:20;2.45;;;1.73;;
60372;SDS011;46216;52.220;5.134;2023-07-31T14:28:45;2.88;;;1.77;;
60372;SDS011;46216;52.220;5.134;2023-07-31T14:31:13;4.10;;;1.85;;
60372;SDS011;46216;52.220;5.134;2023-07-31T14:33:39;3.63;;;1.98;;
60372;SDS011;46216;52.220;5.134;2023-07-31T14:36:04;1.70;;;1.42;;
60372;SDS011;46216;52.220;5.134;2023-07-31T14:38:30;2.35;;;1.58;;
60372;SDS011;46216;52.220;5.134;2023-07-31T14:40:55;2.33;;;1.30;;
60372;SDS011;46216;52.220;5.134;2023-07-31T14:43:21;2.20;;;1.05;;
60372;SDS011;46216;52.220;5.134;2023-07-31T14:45:46;1.60;;;1.30;;
60372;SDS011;46216;52.220;5.134;2023-07-31T14:48:12;2.15;;;1.38;;